»·PEaware :: N9164D L52-L88

N9164D :: L52-L88

FLIGHT INFORMATION

Flight Status: Arrived
Operator: Privately registered:
United States
More flights under this callsign
Pilot: Christopher S. (45690)
Aircraft: CESSNA 172 SKYHAWK
(C172)
More flights by this aircraft type
Origin: L52 Oceano Co
United States
Destination: L88 New Cuyama
United States
More flights between these airports :: More routes between these airports
Route:
File this flight plan on PilotEdge
Remarks:
Altitude:
(Current/Filed)
7,500ft
Speed:
(Current/Filed)
100kts
Departed: 26-Nov-23 04:22 PM
Arrived: 26-Nov-23 05:40 PM
Distance/Time
Traveled:
47nm/1:18
Distance/Time
To Go:
Arrived

Flight Plot

Page will automatically refresh every two minutes.


Map Options




Map Legend


Flown Route
Filed Route
Departure Airport
Arrival Airport
Navaid (VOR, NDB)
Fix

Horizontal Profiles

Position Reports

Time Latitude Longitude Heading Altitude Ground
Speed
26-Nov-23 16:02 35.102153 -120.622308 16 17ft 0kts
26-Nov-23 16:02 35.102153 -120.622308 16 17ft 0kts
26-Nov-23 16:03 35.102153 -120.622308 16 17ft 0kts
26-Nov-23 16:05 35.102153 -120.622308 16 17ft 0kts
26-Nov-23 16:06 35.102153 -120.622308 16 17ft 0kts
26-Nov-23 16:07 35.102153 -120.622308 16 17ft 0kts
26-Nov-23 16:07 35.102153 -120.622308 16 17ft 0kts
26-Nov-23 16:08 35.102153 -120.622308 16 17ft 0kts
26-Nov-23 16:09 35.101848 -120.622288 205 18ft 0kts
26-Nov-23 16:11 35.099427 -120.619606 327 17ft 0kts
26-Nov-23 16:11 35.099486 -120.619602 38 17ft 0kts
26-Nov-23 16:12 35.099486 -120.619602 38 17ft 0kts
26-Nov-23 16:13 35.099486 -120.619602 38 17ft 0kts
26-Nov-23 16:14 35.099486 -120.619601 38 17ft 0kts
26-Nov-23 16:15 35.099486 -120.619601 38 17ft 0kts
26-Nov-23 16:16 35.099486 -120.619601 38 17ft 0kts
26-Nov-23 16:17 35.099486 -120.619602 38 17ft 0kts
26-Nov-23 16:18 35.099486 -120.619601 38 17ft 0kts
26-Nov-23 16:19 35.099486 -120.619601 38 17ft 0kts
26-Nov-23 16:20 35.099899 -120.619361 356 16ft 7kts
26-Nov-23 16:21 35.108307 -120.634630 291 501ft 67kts
26-Nov-23 16:22 35.099537 -120.636312 82 1139ft 85kts
26-Nov-23 16:23 35.086164 -120.607202 122 1609ft 110kts
26-Nov-23 16:24 35.071286 -120.578190 99 2407ft 101kts
26-Nov-23 16:25 35.068639 -120.544485 95 3129ft 101kts
26-Nov-23 16:26 35.070432 -120.510412 82 3764ft 101kts
26-Nov-23 16:27 35.071603 -120.475804 87 4347ft 102kts
26-Nov-23 16:28 35.071173 -120.440983 101 4881ft 103kts
26-Nov-23 16:29 35.062999 -120.407420 110 5353ft 104kts
26-Nov-23 16:30 35.057488 -120.372225 104 5731ft 111kts
26-Nov-23 16:31 35.050337 -120.335981 106 6173ft 99kts
26-Nov-23 16:32 35.044070 -120.304662 102 6767ft 92kts
26-Nov-23 16:33 35.041688 -120.272746 90 7244ft 99kts
26-Nov-23 16:34 35.041544 -120.264769 97 7368ft 99kts
26-Nov-23 16:39 35.102153 -120.622308 16 17ft 0kts
26-Nov-23 16:40 35.102153 -120.622308 16 17ft 0kts
26-Nov-23 16:41 35.102153 -120.622308 16 17ft 0kts
26-Nov-23 16:42 35.102153 -120.622308 16 17ft 0kts
26-Nov-23 16:43 35.102153 -120.622308 16 17ft 0kts
26-Nov-23 16:44 35.101904 -120.622211 212 17ft 8kts
26-Nov-23 16:45 35.100699 -120.621687 122 19ft 15kts
26-Nov-23 16:46 35.099464 -120.619569 80 17ft 0kts
26-Nov-23 16:47 35.099464 -120.619569 80 17ft 0kts
26-Nov-23 16:48 35.099464 -120.619569 80 17ft 0kts
26-Nov-23 16:49 35.099464 -120.619569 80 17ft 0kts
26-Nov-23 16:50 35.099464 -120.619569 80 17ft 0kts
26-Nov-23 16:51 35.103010 -120.625030 303 91ft 65kts
26-Nov-23 16:52 35.114365 -120.647928 289 805ft 77kts
26-Nov-23 16:53 35.100143 -120.645344 119 1403ft 92kts
26-Nov-23 16:54 35.086156 -120.617077 123 2078ft 93kts
26-Nov-23 16:55 35.077092 -120.588270 105 2792ft 90kts
26-Nov-23 16:56 35.074207 -120.558316 95 3537ft 85kts
26-Nov-23 16:57 35.073127 -120.528317 90 4192ft 88kts
26-Nov-23 16:58 35.073936 -120.498012 84 4815ft 91kts
26-Nov-23 16:59 35.075545 -120.467025 93 5398ft 95kts
26-Nov-23 17:00 35.070840 -120.436272 102 6040ft 86kts
26-Nov-23 17:01 35.064960 -120.407243 106 6581ft 89kts
26-Nov-23 17:02 35.060663 -120.378019 98 7110ft 90kts
26-Nov-23 17:03 35.056537 -120.346523 101 7474ft 102kts
26-Nov-23 17:04 35.050551 -120.311760 101 7495ft 103kts
26-Nov-23 17:05 35.046061 -120.276872 99 7508ft 104kts
26-Nov-23 17:06 35.040799 -120.241971 106 7510ft 104kts
26-Nov-23 17:07 35.033507 -120.207565 101 7513ft 104kts
26-Nov-23 17:08 35.026032 -120.173211 107 7506ft 104kts
26-Nov-23 17:09 35.019990 -120.138431 99 7514ft 104kts
26-Nov-23 17:10 35.013641 -120.103805 105 7517ft 105kts
26-Nov-23 17:11 35.007715 -120.068665 104 7515ft 105kts
26-Nov-23 17:12 35.000378 -120.034127 100 7502ft 104kts
26-Nov-23 17:13 34.995588 -119.998685 106 7471ft 105kts
26-Nov-23 17:14 34.987588 -119.964259 108 7421ft 105kts
26-Nov-23 17:15 34.978674 -119.930330 110 7404ft 104kts
26-Nov-23 17:16 34.969844 -119.896132 110 7094ft 115kts
26-Nov-23 17:17 34.959815 -119.860742 109 5873ft 116kts
26-Nov-23 17:18 34.952015 -119.823414 91 4345ft 109kts
26-Nov-23 17:19 34.943900 -119.789774 108 3361ft 98kts
26-Nov-23 17:20 34.937995 -119.759108 100 3263ft 90kts
26-Nov-23 17:21 34.932501 -119.730044 126 3276ft 88kts
26-Nov-23 17:22 34.930170 -119.724066 102 3256ft 91kts
26-Nov-23 17:28 34.931988 -119.699649 92 3296ft 90kts
26-Nov-23 17:29 34.922857 -119.671122 127 3039ft 91kts
26-Nov-23 17:30 34.924563 -119.651508 334 2936ft 76kts
26-Nov-23 17:31 34.921731 -119.669617 341 2893ft 87kts
26-Nov-23 17:32 34.937693 -119.680054 294 2309ft 74kts
26-Nov-23 17:33 34.946498 -119.703658 292 2662ft 81kts
26-Nov-23 17:34 34.939475 -119.720059 148 3249ft 86kts
26-Nov-23 17:35 34.926493 -119.694633 117 3452ft 85kts
26-Nov-23 17:36 34.916043 -119.667429 126 3315ft 84kts
26-Nov-23 17:37 34.927245 -119.653874 282 3025ft 86kts
26-Nov-23 17:38 34.936985 -119.678290 292 2351ft 75kts
26-Nov-23 17:39 34.942561 -119.690826 26 2151ft 0kts
26-Nov-23 17:40 34.942897 -119.690751 1 2151ft 0kts
26-Nov-23 17:41 34.942897 -119.690751 1 2151ft 0kts
26-Nov-23 17:42 34.942897 -119.690751 1 2151ft 0kts

Navigation Log

Ident Type
Flight plan parsing failed, navigation log unavailable